Antioch, Mississippi
Current Conditions -  °F | °C
As of 2:15 PM on Friday 19 Dec 2014 (Local Time) from KPIB Reporting Station
Clear Clear  
Wind Chill:   Ceiling: Unl
Heat Index:   Visibility: 10mi
Dew Point:   Wind: 7mph
Humidity: 82%   Direction: 10°N
Pressure: 30.13"   Gusts: NA
Location:  31.6875°N, 89.1116°W
Report Text: KPIB 192015Z AUTO 01006KT 10SM CLR 09/06 A3013 RMK AO1 P0002
Loading
Personal Weather Stations






























Interactive Weather Map New forecast layout! Learn more

10-Day Weather Forecast

Advertisements
Track Severe Weather on mobile